Time;durP1;ratioP1;P1;durP2;ratioP2;P2;SDS_P1;SDS_P2;PMS_P1;PMS_P2;Temp;Humidity;BMP_temperature;BMP_pressure;BME280_temperature;BME280_humidity;BME280_pressure;Samples;Min_cycle;Max_cycle;Signal;HPM_P1;HPM_P2
2022/06/20 00:00:06;;;;;;;;;;;17.50;99.90;;;;;;5050509;28;19928;-62
2022/06/20 00:02:31;;;;;;;;;;;17.60;99.90;;;;;;5050642;28;19967;-62
2022/06/20 00:05:00;;;;;;;;;;;17.60;99.90;;;;;;5050923;28;19948;-61
2022/06/20 00:07:26;;;;;;;;;;;17.60;99.90;;;;;;5050294;28;19962;-61
2022/06/20 00:09:51;;;;;;;;;;;17.60;99.90;;;;;;5050063;28;19921;-62
2022/06/20 00:12:23;;;;;;;;;;;17.70;99.90;;;;;;5050014;28;19909;-61
2022/06/20 00:14:51;;;;;;;;;;;17.70;99.90;;;;;;5049672;28;19912;-62
2022/06/20 00:17:17;;;;;;;;;;;17.70;99.90;;;;;;5034792;28;19913;-62
2022/06/20 00:19:42;;;;;;;;;;;17.70;99.90;;;;;;5049807;28;19965;-62
2022/06/20 00:22:09;;;;;;;;;;;17.70;99.90;;;;;;5050156;28;19912;-61
2022/06/20 00:24:34;;;;;;;;;;;17.80;99.90;;;;;;5050122;28;19909;-61
2022/06/20 00:27:00;;;;;;;;;;;17.80;99.90;;;;;;5049451;28;19916;-63
2022/06/20 00:29:28;;;;;;;;;;;17.80;99.90;;;;;;5050666;28;19917;-62
2022/06/20 00:31:53;;;;;;;;;;;17.80;99.90;;;;;;5050108;28;20007;-61
2022/06/20 00:34:19;;;;;;;;;;;17.80;99.90;;;;;;5050456;28;20030;-63
2022/06/20 00:36:44;;;;;;;;;;;17.80;99.90;;;;;;5049668;28;19919;-61
2022/06/20 00:39:11;;;;;;;;;;;17.80;99.90;;;;;;5051144;28;19920;-61
2022/06/20 00:41:36;;;;;;;;;;;17.80;99.90;;;;;;5050264;28;19909;-62
2022/06/20 00:44:02;;;;;;;;;;;17.80;99.90;;;;;;5052196;28;20400;-61
2022/06/20 00:46:34;;;;;;;;;;;17.80;99.90;;;;;;5056388;28;19909;-63
2022/06/20 00:49:07;;;;;;;;;;;17.80;99.90;;;;;;5059085;28;19966;-61
2022/06/20 00:51:41;;;;;;;;;;;17.80;99.90;;;;;;5056004;28;19916;-63
2022/06/20 00:54:27;;;;;;;;;;;17.80;99.90;;;;;;5056041;28;20377;-62
2022/06/20 00:57:19;;;;;;;;;;;17.80;99.90;;;;;;5055165;28;19952;-62
2022/06/20 00:59:46;;;;;;;;;;;17.80;99.90;;;;;;4975391;28;19925;-61
2022/06/20 01:02:12;;;;;;;;;;;17.80;99.90;;;;;;4975693;28;19977;-61
2022/06/20 01:04:41;;;;;;;;;;;17.70;99.90;;;;;;4974826;28;19914;-61
2022/06/20 01:07:09;;;;;;;;;;;17.70;99.90;;;;;;4974921;28;19914;-62
2022/06/20 01:09:37;;;;;;;;;;;17.70;99.90;;;;;;4956381;28;20017;-61
2022/06/20 01:12:03;;;;;;;;;;;17.70;99.90;;;;;;4974828;28;19921;-62
2022/06/20 01:14:34;;;;;;;;;;;17.80;99.90;;;;;;4976040;28;19910;-62
2022/06/20 01:17:00;;;;;;;;;;;17.80;99.90;;;;;;4974649;28;19929;-62
2022/06/20 01:19:31;;;;;;;;;;;17.70;99.90;;;;;;4975340;28;19922;-62
2022/06/20 01:21:59;;;;;;;;;;;17.70;99.90;;;;;;4973660;28;20515;-62
2022/06/20 01:24:30;;;;;;;;;;;17.60;99.90;;;;;;4974557;28;20381;-60
2022/06/20 01:27:14;;;;;;;;;;;17.60;99.90;;;;;;4974729;28;19945;-62
2022/06/20 01:29:39;;;;;;;;;;;17.60;99.90;;;;;;4975212;28;19925;-61
2022/06/20 01:32:05;;;;;;;;;;;17.60;99.90;;;;;;4975257;28;19922;-60
2022/06/20 01:34:31;;;;;;;;;;;17.60;99.90;;;;;;4974699;28;20648;-60
2022/06/20 01:39:44;;;;;;;;;;;17.50;99.90;;;;;;5056047;28;20307;-61
2022/06/20 01:42:19;;;;;;;;;;;17.40;99.90;;;;;;5037823;28;19913;-62
2022/06/20 01:45:02;;;;;;;;;;;17.50;99.90;;;;;;5055917;28;20391;-61
2022/06/20 01:47:28;;;;;;;;;;;17.40;99.90;;;;;;5056661;28;19908;-59
2022/06/20 01:49:56;;;;;;;;;;;17.40;99.90;;;;;;5055314;28;19947;-62
2022/06/20 01:52:21;;;;;;;;;;;17.40;99.90;;;;;;5059677;28;20353;-62
2022/06/20 01:54:49;;;;;;;;;;;17.40;99.90;;;;;;5055629;28;19962;-61
2022/06/20 01:57:16;;;;;;;;;;;17.40;99.90;;;;;;5051210;28;19912;-62
2022/06/20 01:59:49;;;;;;;;;;;17.30;99.90;;;;;;5052768;28;20021;-61
2022/06/20 02:02:15;;;;;;;;;;;17.30;99.90;;;;;;5053104;28;19986;-61
2022/06/20 02:04:41;;;;;;;;;;;17.20;99.90;;;;;;5052312;28;20336;-60
2022/06/20 02:07:09;;;;;;;;;;;17.20;99.90;;;;;;5052164;28;19912;-63
2022/06/20 02:09:35;;;;;;;;;;;17.20;99.90;;;;;;5052228;28;20415;-63
2022/06/20 02:12:01;;;;;;;;;;;17.20;99.90;;;;;;5052424;28;20420;-61
2022/06/20 02:14:29;;;;;;;;;;;17.20;99.90;;;;;;5056568;28;20398;-62
2022/06/20 02:16:58;;;;;;;;;;;17.20;99.90;;;;;;5051965;28;20379;-62
2022/06/20 02:19:26;;;;;;;;;;;17.20;99.90;;;;;;5051764;28;19917;-62
2022/06/20 02:21:56;;;;;;;;;;;17.20;99.90;;;;;;5051745;28;19913;-63
2022/06/20 02:24:23;;;;;;;;;;;17.30;99.90;;;;;;5052158;28;19939;-63
2022/06/20 02:26:50;;;;;;;;;;;17.30;99.90;;;;;;5052286;28;19912;-63
2022/06/20 02:29:24;;;;;;;;;;;17.30;99.90;;;;;;5052606;28;19964;-62
2022/06/20 02:31:54;;;;;;;;;;;17.30;99.90;;;;;;5051971;28;19967;-61
2022/06/20 02:34:21;;;;;;;;;;;17.30;99.90;;;;;;5051673;28;19913;-63
2022/06/20 02:36:47;;;;;;;;;;;17.30;99.90;;;;;;5051403;28;19913;-61
2022/06/20 02:39:12;;;;;;;;;;;17.40;99.90;;;;;;5051790;28;19999;-61
2022/06/20 02:41:39;;;;;;;;;;;17.40;99.90;;;;;;5057176;28;19909;-61
2022/06/20 02:44:09;;;;;;;;;;;17.40;99.90;;;;;;5052290;28;19917;-63
2022/06/20 02:46:35;;;;;;;;;;;17.40;99.90;;;;;;5051511;28;19955;-62
2022/06/20 02:49:02;;;;;;;;;;;17.40;99.90;;;;;;5051723;28;19931;-62
2022/06/20 02:51:30;;;;;;;;;;;17.50;99.90;;;;;;5051212;28;19996;-62
2022/06/20 02:53:57;;;;;;;;;;;17.50;99.90;;;;;;5051588;28;19912;-61
2022/06/20 02:56:24;;;;;;;;;;;17.50;99.90;;;;;;5052306;28;19916;-63
2022/06/20 02:58:52;;;;;;;;;;;17.50;99.90;;;;;;5050973;28;20291;-61
2022/06/20 03:01:34;;;;;;;;;;;17.60;99.90;;;;;;5051124;28;20368;-64
2022/06/20 03:04:00;;;;;;;;;;;17.60;99.90;;;;;;5050907;28;19921;-62
2022/06/20 03:06:29;;;;;;;;;;;17.60;99.90;;;;;;5050670;28;19913;-62
2022/06/20 03:08:55;;;;;;;;;;;17.60;99.90;;;;;;5051046;28;20397;-62
2022/06/20 03:11:21;;;;;;;;;;;17.60;99.90;;;;;;5054600;28;19916;-63
2022/06/20 03:13:47;;;;;;;;;;;17.60;99.90;;;;;;5050829;28;20004;-62
2022/06/20 03:16:13;;;;;;;;;;;17.60;99.90;;;;;;5051769;28;19917;-61
2022/06/20 03:18:42;;;;;;;;;;;17.70;99.90;;;;;;5050858;28;19916;-61
2022/06/20 03:21:08;;;;;;;;;;;17.70;99.90;;;;;;5050578;28;19924;-62
2022/06/20 03:23:34;;;;;;;;;;;17.70;99.90;;;;;;5051741;28;19933;-60
2022/06/20 03:26:01;;;;;;;;;;;17.70;99.90;;;;;;5051407;28;19909;-62
2022/06/20 03:28:28;;;;;;;;;;;17.70;99.90;;;;;;5050293;28;19920;-61
2022/06/20 03:30:53;;;;;;;;;;;17.60;99.90;;;;;;5051326;28;19944;-62
2022/06/20 03:33:21;;;;;;;;;;;17.60;99.90;;;;;;5050849;28;19936;-60
2022/06/20 03:35:50;;;;;;;;;;;17.60;99.90;;;;;;5050316;28;19915;-62
2022/06/20 03:38:15;;;;;;;;;;;17.50;99.90;;;;;;5051463;28;20119;-61
2022/06/20 03:40:41;;;;;;;;;;;17.50;99.90;;;;;;5050348;28;20009;-61
2022/06/20 03:43:09;;;;;;;;;;;17.50;99.90;;;;;;5053585;28;19920;-62
2022/06/20 03:45:37;;;;;;;;;;;17.40;99.90;;;;;;5050833;28;20029;-63
2022/06/20 03:48:05;;;;;;;;;;;17.30;99.90;;;;;;5050445;28;19913;-63
2022/06/20 03:50:38;;;;;;;;;;;17.30;99.90;;;;;;5051009;28;19959;-60
2022/06/20 03:53:07;;;;;;;;;;;17.20;99.90;;;;;;5050191;28;19913;-62
2022/06/20 03:55:38;;;;;;;;;;;17.20;99.90;;;;;;5050566;28;20503;-61
2022/06/20 03:58:19;;;;;;;;;;;17.10;99.90;;;;;;5049992;28;19916;-61
2022/06/20 04:00:47;;;;;;;;;;;17.10;99.90;;;;;;5049521;28;19921;-59
2022/06/20 04:03:17;;;;;;;;;;;17.10;99.90;;;;;;5049594;28;19920;-61
2022/06/20 04:05:47;;;;;;;;;;;17.10;99.90;;;;;;5050395;28;19913;-60
2022/06/20 04:08:16;;;;;;;;;;;17.20;99.90;;;;;;5051329;28;19950;-61
2022/06/20 04:10:58;;;;;;;;;;;17.20;99.90;;;;;;5050242;28;19912;-61
2022/06/20 04:13:36;;;;;;;;;;;17.20;99.90;;;;;;5045858;28;19917;-61
2022/06/20 04:16:13;;;;;;;;;;;17.10;99.90;;;;;;5049761;28;19913;-62
2022/06/20 04:18:45;;;;;;;;;;;17.10;99.90;;;;;;5048586;28;20269;-62
2022/06/20 04:21:23;;;;;;;;;;;17.00;99.90;;;;;;5049785;28;19916;-61
2022/06/20 04:23:54;;;;;;;;;;;17.00;99.90;;;;;;5056086;28;19941;-62
2022/06/20 04:26:49;;;;;;;;;;;16.90;99.90;;;;;;5056469;28;19909;-63
2022/06/20 04:29:24;;;;;;;;;;;16.90;99.90;;;;;;5033830;28;19967;-61
2022/06/20 04:31:56;;;;;;;;;;;16.80;99.90;;;;;;5049554;28;19920;-61
2022/06/20 04:34:31;;;;;;;;;;;16.80;99.90;;;;;;5049461;28;19916;-61
2022/06/20 04:37:03;;;;;;;;;;;16.90;99.90;;;;;;5049616;28;19956;-62
2022/06/20 04:39:28;;;;;;;;;;;16.90;99.90;;;;;;5049313;28;19991;-61
2022/06/20 04:41:58;;;;;;;;;;;16.90;99.90;;;;;;5049110;28;20016;-61
2022/06/20 04:44:26;;;;;;;;;;;16.80;99.90;;;;;;5050490;28;20291;-60
2022/06/20 04:46:59;;;;;;;;;;;16.80;99.90;;;;;;5048832;28;19913;-61
2022/06/20 04:49:25;;;;;;;;;;;16.80;99.90;;;;;;5049236;28;19928;-61
2022/06/20 04:51:50;;;;;;;;;;;16.80;99.90;;;;;;5048931;28;19933;-62
2022/06/20 04:54:19;;;;;;;;;;;16.70;99.90;;;;;;5049340;28;19935;-61
2022/06/20 04:56:44;;;;;;;;;;;16.60;99.90;;;;;;5031493;28;20112;-60
2022/06/20 04:59:13;;;;;;;;;;;16.50;99.90;;;;;;5050088;28;19909;-60
2022/06/20 05:01:39;;;;;;;;;;;16.50;99.90;;;;;;5048625;28;19942;-60
2022/06/20 05:04:16;;;;;;;;;;;16.50;99.90;;;;;;5048599;28;20475;-61
2022/06/20 05:06:42;;;;;;;;;;;16.40;99.90;;;;;;5031235;28;19923;-62
2022/06/20 05:09:12;;;;;;;;;;;16.40;99.90;;;;;;5049062;28;19924;-61
2022/06/20 05:11:44;;;;;;;;;;;16.40;99.90;;;;;;5049217;28;19935;-61
2022/06/20 05:14:25;;;;;;;;;;;16.40;99.90;;;;;;5049395;28;19915;-60
2022/06/20 05:16:51;;;;;;;;;;;16.50;99.90;;;;;;5048459;28;19952;-60
2022/06/20 05:19:20;;;;;;;;;;;16.50;99.90;;;;;;5048595;28;19996;-60
2022/06/20 05:21:47;;;;;;;;;;;16.60;99.90;;;;;;5030752;28;19923;-61
2022/06/20 05:24:14;;;;;;;;;;;16.50;99.90;;;;;;5049152;28;19916;-62
2022/06/20 05:26:41;;;;;;;;;;;16.50;99.90;;;;;;5048969;28;19913;-61
2022/06/20 05:29:09;;;;;;;;;;;16.50;99.90;;;;;;5049412;28;19920;-60
2022/06/20 05:31:37;;;;;;;;;;;16.50;99.90;;;;;;5051451;28;19960;-61
2022/06/20 05:34:10;;;;;;;;;;;16.50;99.90;;;;;;5052357;28;19920;-61
2022/06/20 05:36:49;;;;;;;;;;;16.50;99.90;;;;;;5052952;28;19917;-61
2022/06/20 05:39:24;;;;;;;;;;;16.50;99.90;;;;;;5052066;28;19916;-60
2022/06/20 05:41:50;;;;;;;;;;;16.50;99.90;;;;;;5052482;28;20292;-60
2022/06/20 05:44:16;;;;;;;;;;;16.40;99.90;;;;;;5053365;28;19909;-61
2022/06/20 05:46:43;;;;;;;;;;;16.40;99.90;;;;;;5052467;28;19956;-61
2022/06/20 05:49:11;;;;;;;;;;;16.50;99.90;;;;;;5051909;28;19928;-61
2022/06/20 05:51:38;;;;;;;;;;;16.50;99.90;;;;;;5052732;28;19912;-62
2022/06/20 05:54:09;;;;;;;;;;;16.50;99.90;;;;;;5052099;28;19923;-62
2022/06/20 05:56:34;;;;;;;;;;;16.50;99.90;;;;;;5056514;28;19962;-62
2022/06/20 05:59:01;;;;;;;;;;;16.50;99.90;;;;;;5052844;28;19913;-60
2022/06/20 06:01:30;;;;;;;;;;;16.50;99.90;;;;;;5033443;28;19917;-62
2022/06/20 06:04:04;;;;;;;;;;;16.40;99.90;;;;;;5052240;28;19932;-61
2022/06/20 06:06:32;;;;;;;;;;;16.50;99.90;;;;;;5051532;28;19913;-63
2022/06/20 06:09:09;;;;;;;;;;;16.60;99.90;;;;;;5034438;28;19921;-60
2022/06/20 06:11:35;;;;;;;;;;;16.70;99.90;;;;;;5052034;28;20484;-62
2022/06/20 06:14:03;;;;;;;;;;;16.70;99.90;;;;;;5052370;28;19909;-62
2022/06/20 06:16:48;;;;;;;;;;;16.70;99.90;;;;;;5047820;28;19966;-61
2022/06/20 06:19:32;;;;;;;;;;;16.70;99.90;;;;;;5047476;28;19917;-62
2022/06/20 06:21:59;;;;;;;;;;;16.60;99.90;;;;;;5051416;28;19988;-63
2022/06/20 06:24:25;;;;;;;;;;;16.60;99.90;;;;;;5051747;28;19920;-61
2022/06/20 06:26:52;;;;;;;;;;;16.50;99.90;;;;;;5051817;28;20022;-60
2022/06/20 06:29:20;;;;;;;;;;;16.50;99.90;;;;;;5051847;28;19921;-60
2022/06/20 06:31:46;;;;;;;;;;;16.50;99.90;;;;;;5051729;28;19912;-60
2022/06/20 06:34:35;;;;;;;;;;;16.50;99.90;;;;;;5051224;28;19916;-60
2022/06/20 06:37:03;;;;;;;;;;;16.50;99.90;;;;;;5040174;28;19912;-59
2022/06/20 06:39:34;;;;;;;;;;;16.50;99.90;;;;;;5045041;28;19916;-60
2022/06/20 06:42:01;;;;;;;;;;;16.60;99.90;;;;;;5050975;28;19920;-61
2022/06/20 06:44:32;;;;;;;;;;;16.60;99.90;;;;;;5051705;28;19909;-61
2022/06/20 06:46:59;;;;;;;;;;;16.60;99.90;;;;;;5051127;28;19916;-62
2022/06/20 06:49:34;;;;;;;;;;;16.50;99.90;;;;;;5053305;28;19925;-62
2022/06/20 06:52:11;;;;;;;;;;;16.50;99.90;;;;;;5051439;28;19913;-61
2022/06/20 06:54:43;;;;;;;;;;;16.50;99.90;;;;;;5050533;28;19952;-61
2022/06/20 06:57:21;;;;;;;;;;;16.50;99.90;;;;;;5050985;28;20257;-60
2022/06/20 07:00:13;;;;;;;;;;;16.50;99.90;;;;;;5052017;28;19909;-60
2022/06/20 07:02:41;;;;;;;;;;;16.50;99.90;;;;;;5048052;28;19923;-61
2022/06/20 07:05:19;;;;;;;;;;;16.50;99.90;;;;;;5051295;28;20371;-62
2022/06/20 07:07:48;;;;;;;;;;;16.50;99.90;;;;;;5050965;28;19917;-61
2022/06/20 07:10:26;;;;;;;;;;;16.50;99.90;;;;;;5051184;28;19928;-61
2022/06/20 07:12:55;;;;;;;;;;;16.50;99.90;;;;;;5033617;28;19940;-59
2022/06/20 07:15:22;;;;;;;;;;;16.60;99.90;;;;;;5051062;28;20257;-59
2022/06/20 07:17:53;;;;;;;;;;;16.40;99.90;;;;;;5050968;28;19994;-61
2022/06/20 07:20:20;;;;;;;;;;;16.30;99.90;;;;;;5051841;28;20459;-61
2022/06/20 07:22:47;;;;;;;;;;;16.30;99.90;;;;;;5050857;28;19913;-60
2022/06/20 07:25:16;;;;;;;;;;;16.30;99.90;;;;;;5051043;28;19999;-60
2022/06/20 07:27:51;;;;;;;;;;;16.30;99.90;;;;;;5049604;28;19916;-57
2022/06/20 07:30:20;;;;;;;;;;;16.20;99.90;;;;;;5050404;28;19936;-58
2022/06/20 07:32:48;;;;;;;;;;;16.30;99.90;;;;;;5044282;28;19923;-60
2022/06/20 07:35:20;;;;;;;;;;;16.30;99.90;;;;;;5052812;28;20031;-58
2022/06/20 07:37:45;;;;;;;;;;;16.40;99.90;;;;;;5044628;28;19964;-59
2022/06/20 07:40:14;;;;;;;;;;;16.40;99.90;;;;;;5049416;28;19944;-65
2022/06/20 07:42:42;;;;;;;;;;;16.40;99.90;;;;;;5049497;28;19920;-67
2022/06/20 07:45:11;;;;;;;;;;;16.40;99.90;;;;;;5050156;28;19931;-67
2022/06/20 07:47:41;;;;;;;;;;;16.40;99.90;;;;;;5051066;28;20126;-64
2022/06/20 07:50:12;;;;;;;;;;;16.40;99.90;;;;;;5031645;28;19920;-66
2022/06/20 07:52:47;;;;;;;;;;;16.40;99.90;;;;;;5049610;28;20342;-67
2022/06/20 07:55:15;;;;;;;;;;;16.50;99.90;;;;;;5048377;28;20003;-64
2022/06/20 07:57:44;;;;;;;;;;;16.50;99.90;;;;;;5047235;28;19913;-65
2022/06/20 08:00:17;;;;;;;;;;;16.40;99.90;;;;;;5052090;28;19916;-66
2022/06/20 08:02:52;;;;;;;;;;;16.40;99.90;;;;;;5049995;28;19920;-68
2022/06/20 08:05:20;;;;;;;;;;;16.40;99.90;;;;;;5031946;28;19913;-66
2022/06/20 08:07:50;;;;;;;;;;;16.50;99.90;;;;;;5038932;28;19917;-64
2022/06/20 08:10:20;;;;;;;;;;;16.50;99.90;;;;;;5048360;28;20059;-62
2022/06/20 08:12:54;;;;;;;;;;;16.40;99.90;;;;;;5049258;28;19927;-61
2022/06/20 08:15:22;;;;;;;;;;;16.30;99.90;;;;;;5051665;28;19913;-59
2022/06/20 08:17:48;;;;;;;;;;;16.30;99.90;;;;;;5048471;28;19939;-71
2022/06/20 08:20:15;;;;;;;;;;;16.30;99.90;;;;;;5048363;28;20268;-78
2022/06/20 08:22:47;;;;;;;;;;;16.30;99.90;;;;;;5049725;28;19935;-66
2022/06/20 08:25:35;;;;;;;;;;;16.40;99.90;;;;;;5049370;28;20012;-64
2022/06/20 08:28:07;;;;;;;;;;;16.30;99.90;;;;;;5048609;28;19920;-64
2022/06/20 08:30:52;;;;;;;;;;;16.30;99.90;;;;;;5047487;28;20085;-66
2022/06/20 08:33:25;;;;;;;;;;;16.40;99.90;;;;;;5048696;28;19916;-64
2022/06/20 08:35:53;;;;;;;;;;;16.40;99.90;;;;;;5049043;28;19975;-65
2022/06/20 08:38:34;;;;;;;;;;;16.40;99.90;;;;;;5053096;28;19920;-63
2022/06/20 08:41:14;;;;;;;;;;;16.40;99.90;;;;;;5047983;28;19966;-65
2022/06/20 08:43:41;;;;;;;;;;;16.40;99.90;;;;;;5045360;28;19996;-65
2022/06/20 08:46:14;;;;;;;;;;;16.40;99.90;;;;;;5047358;28;19959;-65
2022/06/20 08:48:43;;;;;;;;;;;16.50;99.90;;;;;;5012270;28;20294;-64
2022/06/20 08:51:27;;;;;;;;;;;16.50;99.90;;;;;;5047419;28;19956;-60
2022/06/20 08:54:04;;;;;;;;;;;16.50;99.90;;;;;;5046869;28;20299;-62
2022/06/20 08:56:51;;;;;;;;;;;16.60;99.90;;;;;;5046243;28;20015;-66
2022/06/20 08:59:17;;;;;;;;;;;16.60;99.90;;;;;;5048623;28;19964;-66
2022/06/20 09:02:09;;;;;;;;;;;16.60;99.90;;;;;;5046981;28;20067;-64
2022/06/20 09:04:51;;;;;;;;;;;16.60;99.90;;;;;;5047725;28;20000;-65
2022/06/20 09:07:32;;;;;;;;;;;16.70;99.90;;;;;;5052219;28;20019;-62
2022/06/20 09:10:18;;;;;;;;;;;16.60;99.90;;;;;;5048978;28;19966;-62
2022/06/20 09:12:54;;;;;;;;;;;16.60;99.90;;;;;;5050717;28;19916;-64
2022/06/20 09:15:38;;;;;;;;;;;16.60;99.90;;;;;;5050740;28;19913;-64
2022/06/20 09:18:22;;;;;;;;;;;16.60;99.90;;;;;;5051747;28;19917;-65
2022/06/20 09:20:51;;;;;;;;;;;16.60;99.90;;;;;;5052333;28;19967;-65
2022/06/20 09:23:19;;;;;;;;;;;16.60;99.90;;;;;;5051873;28;19917;-63
2022/06/20 09:25:52;;;;;;;;;;;16.70;99.90;;;;;;5050779;28;19935;-60
2022/06/20 09:28:32;;;;;;;;;;;16.80;99.90;;;;;;5051987;28;19930;-64
2022/06/20 09:31:15;;;;;;;;;;;16.90;99.90;;;;;;5050246;28;19957;-63
2022/06/20 09:33:44;;;;;;;;;;;16.90;99.90;;;;;;5048909;28;19920;-64
2022/06/20 09:36:22;;;;;;;;;;;16.90;99.90;;;;;;5051370;28;19959;-63
2022/06/20 09:38:53;;;;;;;;;;;16.90;99.90;;;;;;5048431;28;20291;-64
2022/06/20 09:41:19;;;;;;;;;;;16.90;99.90;;;;;;5051033;28;20015;-66
2022/06/20 09:44:03;;;;;;;;;;;17.10;99.90;;;;;;5050612;28;20069;-66
2022/06/20 09:46:39;;;;;;;;;;;17.10;99.90;;;;;;5049312;28;19913;-65
2022/06/20 09:49:14;;;;;;;;;;;17.20;99.90;;;;;;5052258;28;19967;-64
2022/06/20 09:51:47;;;;;;;;;;;17.20;99.90;;;;;;5052504;28;20015;-65
2022/06/20 09:54:22;;;;;;;;;;;17.40;99.90;;;;;;5041337;28;19912;-59
2022/06/20 09:56:51;;;;;;;;;;;17.50;99.90;;;;;;5050289;28;20283;-59
2022/06/20 09:59:37;;;;;;;;;;;17.40;99.90;;;;;;5051483;28;19912;-59
2022/06/20 10:02:06;;;;;;;;;;;17.60;99.90;;;;;;5040592;28;20015;-60
2022/06/20 10:04:39;;;;;;;;;;;17.60;99.90;;;;;;5049191;28;19924;-58
2022/06/20 10:07:08;;;;;;;;;;;17.70;99.90;;;;;;5049761;28;19913;-59
2022/06/20 10:09:50;;;;;;;;;;;17.80;99.90;;;;;;5049312;28;19999;-59
2022/06/20 10:12:15;;;;;;;;;;;17.90;99.90;;;;;;5049097;28;19916;-60
2022/06/20 10:15:19;;;;;;;;;;;18.00;99.90;;;;;;5049411;28;19923;-59
2022/06/20 10:17:56;;;;;;;;;;;18.10;99.90;;;;;;4946443;28;19940;-61
2022/06/20 10:20:33;;;;;;;;;;;18.20;99.90;;;;;;4942590;28;19934;-62
2022/06/20 10:23:07;;;;;;;;;;;18.30;99.90;;;;;;4938565;28;19915;-61
2022/06/20 10:25:48;;;;;;;;;;;18.40;99.90;;;;;;4938286;28;19937;-61
2022/06/20 10:28:30;;;;;;;;;;;18.40;99.90;;;;;;4941660;28;19914;-63
2022/06/20 10:31:04;;;;;;;;;;;18.60;99.90;;;;;;4936587;28;19919;-62
2022/06/20 10:33:33;;;;;;;;;;;18.60;99.90;;;;;;4947912;28;19922;-63
2022/06/20 10:35:58;;;;;;;;;;;18.50;99.90;;;;;;4932825;29;19922;-62
2022/06/20 10:38:42;;;;;;;;;;;18.60;99.90;;;;;;4933166;29;19915;-66
2022/06/20 10:41:31;;;;;;;;;;;18.60;99.90;;;;;;4945974;28;19914;-64
2022/06/20 10:44:03;;;;;;;;;;;18.60;99.90;;;;;;4928026;29;19955;-65
2022/06/20 10:46:34;;;;;;;;;;;18.60;99.90;;;;;;4939745;28;19918;-63
2022/06/20 10:49:18;;;;;;;;;;;18.60;99.90;;;;;;5013183;28;19921;-64
2022/06/20 10:51:50;;;;;;;;;;;18.60;99.90;;;;;;5054870;28;19963;-64
2022/06/20 10:54:24;;;;;;;;;;;18.50;99.90;;;;;;5051219;28;19913;-65
2022/06/20 10:56:59;;;;;;;;;;;18.60;99.90;;;;;;5051106;28;19995;-65
2022/06/20 10:59:27;;;;;;;;;;;18.60;99.90;;;;;;5051841;28;19952;-64
2022/06/20 11:01:58;;;;;;;;;;;18.60;99.90;;;;;;5051055;28;19912;-65
2022/06/20 11:04:39;;;;;;;;;;;18.60;99.90;;;;;;5050357;28;19925;-65
2022/06/20 11:07:23;;;;;;;;;;;18.80;99.90;;;;;;5051005;28;19967;-65
2022/06/20 11:09:58;;;;;;;;;;;18.90;99.90;;;;;;5050834;28;19927;-64
2022/06/20 11:12:43;;;;;;;;;;;19.00;99.90;;;;;;5032938;28;20294;-64
2022/06/20 11:15:27;;;;;;;;;;;19.00;99.90;;;;;;5051004;28;19913;-64
2022/06/20 11:17:58;;;;;;;;;;;19.10;99.90;;;;;;5051267;28;19909;-64
2022/06/20 11:20:24;;;;;;;;;;;19.10;99.90;;;;;;5034145;28;20046;-64
2022/06/20 11:22:52;;;;;;;;;;;19.20;99.90;;;;;;5032889;28;19992;-64
2022/06/20 11:25:18;;;;;;;;;;;19.30;99.90;;;;;;5032943;28;19939;-64
2022/06/20 11:27:49;;;;;;;;;;;19.30;99.90;;;;;;5050091;28;20379;-64
2022/06/20 11:30:34;;;;;;;;;;;19.30;99.90;;;;;;5050886;28;19931;-65
2022/06/20 11:33:12;;;;;;;;;;;19.40;99.90;;;;;;5050741;28;19927;-65
2022/06/20 11:35:44;;;;;;;;;;;19.60;99.90;;;;;;5050934;28;19916;-63
2022/06/20 11:38:11;;;;;;;;;;;19.60;99.90;;;;;;5051613;28;19935;-65
2022/06/20 11:40:44;;;;;;;;;;;19.70;99.90;;;;;;5050645;28;19923;-63
2022/06/20 11:43:28;;;;;;;;;;;19.70;99.90;;;;;;5050576;28;19913;-65
2022/06/20 11:46:15;;;;;;;;;;;19.70;99.90;;;;;;5050249;28;20372;-63
2022/06/20 11:48:59;;;;;;;;;;;19.90;99.90;;;;;;5050127;28;20019;-64
2022/06/20 11:51:34;;;;;;;;;;;20.00;99.90;;;;;;5050622;28;19928;-63
2022/06/20 11:54:28;;;;;;;;;;;20.10;99.90;;;;;;5050832;28;19912;-64
2022/06/20 11:56:57;;;;;;;;;;;20.20;99.90;;;;;;5033067;28;19916;-66
2022/06/20 11:59:40;;;;;;;;;;;20.30;99.90;;;;;;5050914;28;19909;-63
2022/06/20 12:02:25;;;;;;;;;;;20.30;99.90;;;;;;5050628;28;20383;-64
2022/06/20 12:05:00;;;;;;;;;;;20.40;99.90;;;;;;5049837;28;19912;-64
2022/06/20 12:07:32;;;;;;;;;;;20.40;99.90;;;;;;5049824;28;20000;-63
2022/06/20 12:10:02;;;;;;;;;;;20.40;99.90;;;;;;5049722;28;19938;-64
2022/06/20 12:12:43;;;;;;;;;;;20.50;99.90;;;;;;5050251;28;19912;-65
2022/06/20 12:15:23;;;;;;;;;;;20.60;99.90;;;;;;5050005;28;20077;-65
2022/06/20 12:18:09;;;;;;;;;;;20.70;99.90;;;;;;5050132;28;19931;-63
2022/06/20 12:23:25;;;;;;;;;;;20.80;99.90;;;;;;5049471;28;19963;-64
2022/06/20 12:25:53;;;;;;;;;;;20.70;99.90;;;;;;5049494;28;19913;-64
2022/06/20 12:28:24;;;;;;;;;;;20.50;99.90;;;;;;5049825;28;19917;-65
2022/06/20 12:31:07;;;;;;;;;;;20.60;99.90;;;;;;5049942;28;20363;-65
2022/06/20 12:33:33;;;;;;;;;;;20.60;99.90;;;;;;5049983;28;19913;-65
2022/06/20 12:36:01;;;;;;;;;;;20.60;99.90;;;;;;5032172;28;20319;-65
2022/06/20 12:38:38;;;;;;;;;;;20.80;99.90;;;;;;5050528;28;20375;-64
2022/06/20 12:41:08;;;;;;;;;;;20.80;99.90;;;;;;5050212;28;19981;-65
2022/06/20 12:43:50;;;;;;;;;;;20.80;99.90;;;;;;5049658;28;19913;-65
2022/06/20 12:46:25;;;;;;;;;;;20.90;99.90;;;;;;5049346;28;19921;-65
2022/06/20 12:48:50;;;;;;;;;;;20.90;99.90;;;;;;5049183;28;20507;-65
2022/06/20 12:51:16;;;;;;;;;;;21.00;99.90;;;;;;5049927;28;19921;-64
2022/06/20 12:53:50;;;;;;;;;;;21.00;99.90;;;;;;5050234;28;20731;-63
2022/06/20 12:56:16;;;;;;;;;;;21.10;99.90;;;;;;5050680;28;19913;-65
2022/06/20 12:58:50;;;;;;;;;;;21.20;99.90;;;;;;5049181;28;19913;-65
2022/06/20 13:01:19;;;;;;;;;;;21.30;99.90;;;;;;5049429;28;19923;-64
2022/06/20 13:04:07;;;;;;;;;;;21.30;99.90;;;;;;5049211;28;19927;-64
2022/06/20 13:06:33;;;;;;;;;;;21.30;99.90;;;;;;5049477;28;19913;-64
2022/06/20 13:09:12;;;;;;;;;;;21.40;99.90;;;;;;5048996;28;20373;-65
2022/06/20 13:11:41;;;;;;;;;;;21.30;99.90;;;;;;5049921;28;20035;-64
2022/06/20 13:14:35;;;;;;;;;;;21.30;99.90;;;;;;5049465;28;19913;-64
2022/06/20 13:17:07;;;;;;;;;;;21.30;99.90;;;;;;5032427;28;19917;-65
2022/06/20 13:19:35;;;;;;;;;;;21.30;99.90;;;;;;5049131;28;19909;-64
2022/06/20 13:22:09;;;;;;;;;;;21.20;99.90;;;;;;5031242;28;19913;-64
2022/06/20 13:24:50;;;;;;;;;;;21.20;99.90;;;;;;5049687;28;19913;-64
2022/06/20 13:27:30;;;;;;;;;;;21.20;99.90;;;;;;5049149;28;19916;-63
2022/06/20 13:30:01;;;;;;;;;;;21.20;99.90;;;;;;5048668;28;19947;-65
2022/06/20 13:32:34;;;;;;;;;;;21.20;99.50;;;;;;5050169;28;20695;-63
2022/06/20 13:35:04;;;;;;;;;;;21.20;99.30;;;;;;5049241;28;19919;-64
2022/06/20 13:37:48;;;;;;;;;;;21.20;99.60;;;;;;5049170;28;19952;-64
2022/06/20 13:40:20;;;;;;;;;;;21.20;99.70;;;;;;5048900;28;19912;-62
2022/06/20 13:42:54;;;;;;;;;;;21.20;99.60;;;;;;5048843;28;19963;-64
2022/06/20 13:45:32;;;;;;;;;;;21.20;99.90;;;;;;5049001;28;19931;-63
2022/06/20 13:48:27;;;;;;;;;;;21.30;99.80;;;;;;5048922;28;19916;-64
2022/06/20 13:51:00;;;;;;;;;;;21.40;99.20;;;;;;5020243;28;19967;-63
2022/06/20 13:53:26;;;;;;;;;;;21.30;99.50;;;;;;5051519;28;19940;-64
2022/06/20 13:55:54;;;;;;;;;;;21.30;99.40;;;;;;5051962;28;20414;-63
2022/06/20 13:58:22;;;;;;;;;;;21.30;99.70;;;;;;5052109;28;19917;-62
2022/06/20 14:00:58;;;;;;;;;;;21.40;99.40;;;;;;5050574;28;19913;-63
2022/06/20 14:03:29;;;;;;;;;;;21.40;99.40;;;;;;5050087;28;19929;-63
2022/06/20 14:06:04;;;;;;;;;;;21.40;99.00;;;;;;5052175;28;19917;-62
2022/06/20 14:08:30;;;;;;;;;;;21.40;99.00;;;;;;5050410;28;19912;-62
2022/06/20 14:11:03;;;;;;;;;;;21.40;99.30;;;;;;5049446;28;20521;-62
2022/06/20 14:13:28;;;;;;;;;;;21.50;98.80;;;;;;5049556;28;19986;-61
2022/06/20 14:16:14;;;;;;;;;;;21.50;98.80;;;;;;5049795;28;20379;-62
2022/06/20 14:18:45;;;;;;;;;;;21.60;99.00;;;;;;5047281;28;19927;-62
2022/06/20 14:21:10;;;;;;;;;;;21.70;98.80;;;;;;5049346;28;19913;-63
2022/06/20 14:23:37;;;;;;;;;;;21.80;98.60;;;;;;5050509;28;19917;-63
2022/06/20 14:26:07;;;;;;;;;;;21.90;99.00;;;;;;5049605;28;19936;-61
2022/06/20 14:28:34;;;;;;;;;;;22.00;98.50;;;;;;5028225;28;20310;-63
2022/06/20 14:31:19;;;;;;;;;;;22.00;98.00;;;;;;5051437;28;19917;-65
2022/06/20 14:33:46;;;;;;;;;;;22.10;98.20;;;;;;5049857;28;19912;-63
2022/06/20 14:36:18;;;;;;;;;;;22.20;97.80;;;;;;5053542;28;19916;-64
2022/06/20 14:38:53;;;;;;;;;;;22.20;97.60;;;;;;5049622;28;19913;-65
2022/06/20 14:41:41;;;;;;;;;;;22.20;97.30;;;;;;5050728;28;20489;-62
2022/06/20 14:44:13;;;;;;;;;;;22.30;97.30;;;;;;5033061;28;19919;-63
2022/06/20 14:46:58;;;;;;;;;;;22.30;97.00;;;;;;5048537;28;19913;-64
2022/06/20 14:49:33;;;;;;;;;;;22.20;96.60;;;;;;5053668;28;19974;-63